createdAt,value
2023-02-15T00:03:22.794Z,101911.31
2023-02-15T00:07:49.259Z,101915.20
2023-02-15T00:11:50.664Z,101916.84
2023-02-15T00:15:52.112Z,101910.90
2023-02-15T00:19:53.658Z,101904.34
2023-02-15T00:23:55.002Z,101901.20
2023-02-15T00:27:56.352Z,101895.14
2023-02-15T00:31:57.698Z,101894.95
2023-02-15T00:36:00.703Z,101888.91
2023-02-15T00:40:02.528Z,101881.52
2023-02-15T00:44:05.135Z,101882.84
2023-02-15T00:48:32.602Z,101884.59
2023-02-15T00:52:34.132Z,101876.14
2023-02-15T00:56:35.773Z,101869.10
2023-02-15T01:00:51.307Z,101867.88
2023-02-15T01:04:52.976Z,101862.46
2023-02-15T01:09:11.127Z,101862.88
2023-02-15T01:13:12.426Z,101858.29
2023-02-15T01:17:13.825Z,101867.20
2023-02-15T01:21:21.279Z,101863.55
2023-02-15T01:25:24.264Z,101862.77
2023-02-15T01:29:25.690Z,101852.48
2023-02-15T01:33:27.421Z,101857.36
2023-02-15T01:37:31.699Z,101851.45
2023-02-15T01:41:33.237Z,101846.23
2023-02-15T01:45:39.357Z,101841.55
2023-02-15T01:49:42.644Z,101837.42
2023-02-15T01:57:53.728Z,101822.52
2023-02-15T02:01:58.716Z,101816.70
2023-02-15T02:06:00.504Z,101811.75
2023-02-15T02:11:18.051Z,101800.89
2023-02-15T02:15:24.164Z,101788.59
2023-02-15T02:19:50.296Z,101788.15
2023-02-15T02:24:09.365Z,101790.55
2023-02-15T02:28:52.931Z,101782.77
2023-02-15T02:33:35.377Z,101781.32
2023-02-15T02:37:48.915Z,101781.30
2023-02-15T02:42:18.106Z,101781.58
2023-02-15T02:46:26.754Z,101784.22
2023-02-15T02:50:30.066Z,101783.29
2023-02-15T02:54:34.989Z,101780.71
2023-02-15T03:18:34.130Z,101773.37
2023-02-15T03:37:32.381Z,101756.06
2023-02-15T03:41:57.200Z,101755.67
2023-02-15T03:46:08.402Z,101750.27
2023-02-15T03:55:23.992Z,101751.75
2023-02-15T04:04:26.843Z,101749.66
2023-02-15T04:08:46.826Z,101739.33
2023-02-15T04:13:21.731Z,101734.86
2023-02-15T04:17:23.167Z,101729.66
2023-02-15T04:21:49.672Z,101728.94
2023-02-15T04:25:51.133Z,101723.84
2023-02-15T04:29:52.652Z,101727.64
2023-02-15T04:43:33.814Z,101727.77
2023-02-15T04:47:43.845Z,101724.08
2023-02-15T04:51:45.742Z,101722.23
2023-02-15T04:55:52.353Z,101721.77
2023-02-15T04:59:54.142Z,101716.83
2023-02-15T05:03:56.169Z,101720.05
2023-02-15T05:07:58.184Z,101718.13
2023-02-15T05:12:00.413Z,101720.23
2023-02-15T05:16:03.444Z,101720.39
2023-02-15T05:30:02.853Z,101710.21
2023-02-15T05:34:49.519Z,101711.32
2023-02-15T05:39:01.840Z,101713.31
2023-02-15T05:43:04.256Z,101714.75
2023-02-15T05:47:40.993Z,101715.33
2023-02-15T05:51:43.752Z,101711.73
2023-02-15T05:55:50.595Z,101708.13
2023-02-15T05:59:51.909Z,101707.80
2023-02-15T06:09:27.856Z,101705.27
2023-02-15T06:13:31.086Z,101706.14
2023-02-15T06:17:32.497Z,101707.54
2023-02-15T06:21:44.341Z,101708.45
2023-02-15T06:25:46.611Z,101711.45
2023-02-15T06:29:48.025Z,101714.56
2023-02-15T06:33:50.711Z,101718.22
2023-02-15T06:37:52.119Z,101713.15
2023-02-15T06:42:44.271Z,101713.06
2023-02-15T06:46:45.697Z,101717.46
2023-02-15T06:50:55.358Z,101718.58
2023-02-15T06:54:56.818Z,101719.36
2023-02-15T07:00:03.118Z,101712.86
2023-02-15T07:04:04.733Z,101713.61
2023-02-15T07:09:11.871Z,101711.31
2023-02-15T07:13:13.241Z,101711.63
2023-02-15T07:17:40.226Z,101708.74
2023-02-15T07:21:41.745Z,101712.58
2023-02-15T07:25:43.186Z,101708.80
2023-02-15T07:29:44.721Z,101706.78
2023-02-15T07:33:59.237Z,101698.28
2023-02-15T07:47:41.420Z,101673.35
2023-02-15T08:21:05.451Z,101633.91
2023-02-15T08:29:55.597Z,101622.36
2023-02-15T08:34:00.929Z,101617.73
2023-02-15T08:38:03.688Z,101614.69
2023-02-15T08:42:11.647Z,101608.71
2023-02-15T08:46:16.613Z,101609.55
2023-02-15T08:55:59.633Z,101606.14
2023-02-15T09:22:07.418Z,101589.00
2023-02-15T09:26:13.111Z,101581.90
2023-02-15T09:30:15.177Z,101584.30
2023-02-15T09:34:18.790Z,101588.30
2023-02-15T09:38:20.549Z,101587.18
2023-02-15T09:47:57.581Z,101577.00
2023-02-15T09:52:08.041Z,101569.66
2023-02-15T09:57:16.294Z,101562.29
2023-02-15T10:01:55.718Z,101556.64
2023-02-15T10:06:32.770Z,101550.67
2023-02-15T10:25:13.130Z,101538.86
2023-02-15T10:30:21.236Z,101535.19
2023-02-15T11:14:48.343Z,101490.65
2023-02-15T11:19:09.547Z,101484.78
2023-02-15T11:23:16.729Z,101473.77
2023-02-15T11:27:26.759Z,101469.15
2023-02-15T11:31:48.499Z,101465.17
2023-02-15T11:45:35.823Z,101453.98
2023-02-15T11:49:41.962Z,101443.60
2023-02-15T11:53:46.079Z,101431.31
2023-02-15T11:58:41.473Z,101424.45
2023-02-15T12:02:55.903Z,101418.11
2023-02-15T12:07:22.862Z,101406.94
2023-02-15T12:11:32.420Z,101404.80
2023-02-15T12:15:36.853Z,101403.15
2023-02-15T12:19:40.849Z,101405.55
2023-02-15T12:24:39.954Z,101399.77
2023-02-15T12:28:44.766Z,101401.05
2023-02-15T12:33:00.096Z,101400.42
2023-02-15T12:37:09.717Z,101390.50
2023-02-15T12:41:26.210Z,101380.85
2023-02-15T12:45:30.441Z,101377.56
2023-02-15T12:49:38.985Z,101383.09
2023-02-15T12:53:43.523Z,101377.55
2023-02-15T12:58:22.518Z,101375.24
2023-02-15T13:02:28.759Z,101373.21
2023-02-15T13:06:32.003Z,101366.11
2023-02-15T13:16:38.435Z,101353.27
2023-02-15T13:20:42.164Z,101355.15
2023-02-15T13:25:26.220Z,101347.91
2023-02-15T13:29:36.176Z,101346.40
2023-02-15T13:33:38.705Z,101346.55
2023-02-15T13:38:02.126Z,101342.36
2023-02-15T14:09:36.254Z,101334.34
2023-02-15T14:28:47.122Z,101308.04
2023-02-15T14:32:53.354Z,101306.69
2023-02-15T14:36:56.502Z,101305.42
2023-02-15T14:46:36.370Z,101309.67
2023-02-15T14:51:08.340Z,101310.60
2023-02-15T14:55:10.654Z,101311.02
2023-02-15T14:59:39.223Z,101308.58
2023-02-15T15:03:56.742Z,101306.59
2023-02-15T15:08:00.938Z,101302.61
2023-02-15T15:12:37.229Z,101302.58
2023-02-15T15:16:38.543Z,101297.17
2023-02-15T15:20:54.864Z,101295.42
2023-02-15T15:25:23.758Z,101291.64
2023-02-15T15:29:41.133Z,101291.59
2023-02-15T15:34:10.184Z,101292.81
2023-02-15T15:38:32.349Z,101296.38
2023-02-15T15:42:42.992Z,101294.69
2023-02-15T15:47:25.939Z,101297.52
2023-02-15T15:51:31.832Z,101301.61
2023-02-15T15:55:35.012Z,101302.70
2023-02-15T15:59:36.489Z,101297.64
2023-02-15T16:03:37.924Z,101297.34
2023-02-15T16:07:41.660Z,101299.02
2023-02-15T16:12:14.362Z,101298.06
2023-02-15T16:16:22.798Z,101293.52
2023-02-15T16:20:57.722Z,101295.40
2023-02-15T16:25:05.485Z,101288.92
2023-02-15T16:29:18.128Z,101285.44
2023-02-15T16:33:20.462Z,101279.79
2023-02-15T16:37:26.386Z,101277.83
2023-02-15T16:47:41.540Z,101270.33
2023-02-15T16:51:47.471Z,101263.97
2023-02-15T16:55:53.427Z,101260.84
2023-02-15T17:00:01.405Z,101261.07
2023-02-15T17:04:30.521Z,101261.60
2023-02-15T17:08:33.167Z,101264.09
2023-02-15T17:12:45.405Z,101265.76
2023-02-15T17:22:07.361Z,101262.38
2023-02-15T17:26:25.098Z,101259.08
2023-02-15T17:30:38.176Z,101256.35
2023-02-15T17:35:25.051Z,101249.36
2023-02-15T17:39:26.461Z,101254.61
2023-02-15T17:43:27.932Z,101248.42
2023-02-15T17:47:30.817Z,101244.70
2023-02-15T17:51:35.333Z,101242.58
2023-02-15T17:55:44.459Z,101240.30
2023-02-15T18:00:04.600Z,101238.86
2023-02-15T18:04:31.788Z,101237.58
2023-02-15T18:08:51.892Z,101235.41
2023-02-15T18:12:53.282Z,101228.02
2023-02-15T18:16:55.110Z,101222.27
2023-02-15T18:20:56.577Z,101221.52
2023-02-15T18:24:58.772Z,101220.83
2023-02-15T18:29:02.736Z,101226.42
2023-02-15T18:33:04.177Z,101219.85
2023-02-15T18:37:10.590Z,101214.10
2023-02-15T18:41:18.196Z,101213.26
2023-02-15T18:45:53.335Z,101211.20
2023-02-15T18:49:54.754Z,101216.59
2023-02-15T18:53:56.891Z,101213.25
2023-02-15T18:57:58.936Z,101209.73
2023-02-15T19:02:50.543Z,101209.04
2023-02-15T19:06:53.651Z,101204.09
2023-02-15T19:10:55.505Z,101199.38
2023-02-15T19:14:56.939Z,101193.30
2023-02-15T19:19:07.467Z,101192.14
2023-02-15T19:23:33.114Z,101184.96
2023-02-15T19:27:35.286Z,101179.71
2023-02-15T19:31:36.786Z,101173.92
2023-02-15T19:35:44.011Z,101176.73
2023-02-15T19:39:45.473Z,101170.20
2023-02-15T19:43:52.630Z,101166.40
2023-02-15T19:47:54.571Z,101165.39
2023-02-15T19:51:59.231Z,101169.08
2023-02-15T19:56:00.877Z,101174.23
2023-02-15T20:00:22.129Z,101180.10
2023-02-15T20:04:25.305Z,101176.58
2023-02-15T20:08:28.881Z,101172.02
2023-02-15T20:12:30.399Z,101171.20
2023-02-15T20:17:00.157Z,101169.44
2023-02-15T20:21:03.084Z,101167.75
2023-02-15T20:25:05.347Z,101168.55
2023-02-15T20:29:12.311Z,101165.08
2023-02-15T20:33:15.257Z,101164.59
2023-02-15T20:38:22.471Z,101166.30
2023-02-15T20:42:23.871Z,101160.65
2023-02-15T20:46:25.595Z,101154.61
2023-02-15T20:50:53.652Z,101159.41
2023-02-15T20:54:55.151Z,101154.71
2023-02-15T20:58:56.572Z,101155.52
2023-02-15T21:03:00.335Z,101151.80
2023-02-15T21:07:30.357Z,101153.98
2023-02-15T21:11:31.779Z,101154.45
2023-02-15T21:15:35.976Z,101146.62
2023-02-15T21:19:40.690Z,101140.45
2023-02-15T21:23:51.087Z,101136.42
2023-02-15T21:27:53.030Z,101130.34
2023-02-15T21:32:26.756Z,101131.34
2023-02-15T21:36:28.268Z,101123.61
2023-02-15T21:40:31.650Z,101119.39
2023-02-15T21:44:53.906Z,101125.87
2023-02-15T21:48:55.387Z,101119.33
2023-02-15T21:53:34.382Z,101114.14
2023-02-15T21:57:35.778Z,101111.13
2023-02-15T22:01:47.059Z,101103.50
2023-02-15T22:05:48.496Z,101103.18
2023-02-15T22:09:49.965Z,101107.15
2023-02-15T22:13:51.417Z,101102.82
2023-02-15T22:17:57.059Z,101098.84
2023-02-15T22:21:58.390Z,101101.00
2023-02-15T22:26:27.302Z,101095.79
2023-02-15T22:30:33.178Z,101094.13
2023-02-15T22:34:34.652Z,101098.83
2023-02-15T22:39:02.020Z,101096.98
2023-02-15T22:43:05.022Z,101098.64
2023-02-15T22:47:20.234Z,101090.39
2023-02-15T22:51:23.921Z,101095.09
2023-02-15T22:55:32.999Z,101103.77
2023-02-15T22:59:34.458Z,101103.29
2023-02-15T23:03:36.975Z,101101.52
2023-02-15T23:07:38.379Z,101100.45
2023-02-15T23:11:46.437Z,101107.34
2023-02-15T23:16:12.061Z,101102.45
2023-02-15T23:20:14.577Z,101103.02
2023-02-15T23:24:42.869Z,101100.20
2023-02-15T23:28:45.121Z,101097.91
2023-02-15T23:33:58.991Z,101093.33
2023-02-15T23:38:00.408Z,101098.59
2023-02-15T23:42:25.091Z,101106.85
2023-02-15T23:46:44.902Z,101106.55
2023-02-15T23:50:46.351Z,101103.39
2023-02-15T23:55:15.122Z,101100.00
2023-02-15T23:59:20.653Z,101105.73
